Beirut International

Airport
ICAO code: 
OLBA
Summary
ICAO Region: 
MID
Territory: 
Location: 
Beirut International, Lebanon,
Coordinates: 
Aerial View: 
33° 49' 15.24" N, 35° 29' 18.238" E
Metar
Observation
OLBA 192300Z 33016KT 8000 NSC 09/M03 Q1024 NOSIG
Station
Beyrouth Aeroport
Date/Time
2022-01-19 23:00:00
Wind direction
330°
Wind speed
16 kts
Lowest cloud amount
nil significant cloud
Temperature
9°C
Dew point
-3°C
Humidity
42%
QNH
1024 hPa
Weather condition
n/a

Description

International airport serving Beirut, capital of Lebanon.

Climatology

Dry-summer subtropical ”Mediterranean" climate (Köppen climate classification Csa) - characterized by hot, dry summers and mild winters. During the summer, subtropical high pressure cells dominate, making rainfall unlikely except for the occasional thunderstorm. In the winter, periodic storms bring rain.

Runways

Designator Length Width Surface Rops
17/35 3250 60 ASP Yes/Yes
16/34 3395 45 CON Yes/Yes
3/21 3800 45 CON Yes/Yes
Airport map: 
Aerial View: 

SKYbrary Partners:

Safety knowledge contributed by: